ESMSESTA

Guest
Details From ESMS - Malmo Sturup
To ESTA - Angelholm
Flight Number -
Tags generated
Created
Modified
Stats Distance 49 nm / 91 km
Max Altitude 2,300 ft / 701 m
Waypoints 3
Social Downloads 0
Likes 0
Share VATSIM

Download

Looking for another format? Having issues loading an existing format? Contact us
Advertisement - Login to hide

Notes

Basic altitude profile: - Ascent Rate: 2500ft/min - Ascent Speed: 250kts - Cruise Altitude: 35000ft - Cruise Speed: 420kts - Descent Rate: 1500ft/min - Descent Speed: 250kts Options: - Use NATs: yes - Use PACOTS: yes - Use low airways: yes - Use high airways: yes

Route

ESMS ASTOS ESTA

ID Type Via Altitude Latitude Longitude Leg Dist Tot Dist Heading (true) Name
O ESMS APT - 0 ft / 0 m 55.52888˚ 13.37111˚ - 0 nm - Malmo Sturup
ASTOS FIX - 2,300 ft / 701 m 56.12047˚ 12.96125˚ 38 nm 38 nm 339° / 339° -
O ESTA APT - 0 ft / 0 m 56.29149˚ 12.85498˚ 10 nm 48 nm 341° / 341° Angelholm

Altitude Profile

Advertisement - Login to hide

ESMS

Details ICAO ESMS (MMX)
Name Malmo Sturup
Region Sweden
Timezone Europe/Stockholm (UTC+2.0)
Stats Elevation 236 ft / 72 m (AMSL)
Location 55.528883° 13.371109°
Runways 2
Magnetic Variation 4.029° E

METAR

ESMS 260220Z 07008KT CAVOK 15/07 Q1024

Decode

TAF

TAF ESMS 252312Z 2600/2624 07012KT CAVOK TEMPO 2606/2622 SCT040CB PROB40 TEMPO 2606/2618 4000 TSRA BECMG 2622/2624 BKN008

Decode

Departure Runways

ID Width Length Bearing (true) Bearing (mag) Surface Threshold Offset Overrun Length
11 59 ft / 18 m 2,609 ft / 795 m 105.31° 101.28° Asphalt 0 ft / 0 m 0 ft / 0 m
17 148 ft / 45 m 9,176 ft / 2,797 m 173.36° 169.33° Asphalt 0 ft / 0 m 98 ft / 30 m
29 59 ft / 18 m 2,609 ft / 795 m 285.32° 281.29° Asphalt 0 ft / 0 m 0 ft / 0 m
35 148 ft / 45 m 9,176 ft / 2,797 m 353.37° 349.34° Asphalt 0 ft / 0 m 98 ft / 30 m

ESTA

Details ICAO ESTA (AGH)
Name Angelholm
Region Sweden
Timezone Europe/Stockholm (UTC+2.0)
Stats Elevation 68 ft / 21 m (AMSL)
Location 56.291492° 12.854977°
Runways 1
Magnetic Variation 3.905° E

METAR

ESTA 260220Z AUTO 13004KT 9999 NCD 12/07 Q1025

Decode

TAF

Not found

Destination Runways

ID Width Length Bearing (true) Bearing (mag) Surface Threshold Offset Overrun Length
14 148 ft / 45 m 6,339 ft / 1,932 m 136.36° 132.45° Asphalt 0 ft / 0 m 0 ft / 0 m
32 148 ft / 45 m 6,339 ft / 1,932 m 316.38° 312.47° Asphalt 0 ft / 0 m 0 ft / 0 m

Approach Navaids

Runway Type Ident Frequency Range Bearing (true) Bearing (mag) Slope Elevation
14 Localiser DB 111.30 MHz 18 nm / 33 km 136.40° 132.49° - 38 ft / 12 m (AMSL)
14 Glidescope DB 111.30 MHz 10 nm / 19 km 136.37° 132.46° 3.00° 68 ft / 21 m (AMSL)

Popular Alternatives